This is the latest recevied weather packets stored in our database for station/object KQ5S-13. If no packets are shown the sender has not sent any weather packets the latest 10 day(s).
| Time | Temp. | Humidity | Pressure | Rain* | Wind** | Luminosity | Snow |
|---|---|---|---|---|---|---|---|
| 1777311016 | 23.89° C | 70% | 1017.8 hPa | 0 mm | - | 310 W/m² | - |
| 1777309816 | 23.89° C | 68% | 1017.9 hPa | 0 mm | - | 308 W/m² | - |
| 1777307416 | 23.33° C | 72% | 1018 hPa | 0 mm | - | 989 W/m² | - |
| 1777306215 | 22.78° C | 73% | 1018.3 hPa | 0 mm | - | 1074 W/m² | - |
| 1777290017 | 17.22° C | 88% | 1016.8 hPa | 0 mm | - | 35 W/m² | - |
| 1777287637 | 16.67° C | 87% | 1016.6 hPa | 0 mm | - | 0 W/m² | - |
| 1777287017 | 16.67° C | 86% | 1016.5 hPa | 0 mm | - | 0 W/m² | - |
| 1777282857 | 17.22° C | 83% | 1016.3 hPa | 0 mm | - | 0 W/m² | - |
| 1777280417 | 16.67° C | 81% | 1015.8 hPa | 0 mm | - | 0 W/m² | - |
| 1777277417 | 16.67° C | 82% | 1015.3 hPa | 0 mm | - | 0 W/m² | - |
| 1777272617 | 16.11° C | 88% | 1015.1 hPa | 0 mm | - | 0 W/m² | - |
| 1777269617 | 16.11° C | 89% | 1015.1 hPa | 0 mm | - | 0 W/m² | - |
| 1777269017 | 16.11° C | 89% | 1015.3 hPa | 0 mm | - | 0 W/m² | - |
| 1777264817 | 16.67° C | 88% | 1015 hPa | 0 mm | - | 0 W/m² | - |
| 1777264217 | 17.22° C | 87% | 1015 hPa | 0 mm | - | 0 W/m² | - |
| 1777260037 | 18.89° C | 81% | 1014.3 hPa | 0 mm | - | 0 W/m² | - |
| 1777258217 | 20° C | 79% | 1014.4 hPa | 0 mm | - | 0 W/m² | - |
| 1777257017 | 20.56° C | 77% | 1014.2 hPa | 0 mm | - | 0 W/m² | - |
| 1777251017 | 23.89° C | 64% | 1013.1 hPa | 0 mm | - | 0 W/m² | - |
| 1777243817 | 26.67° C | 48% | 1012.2 hPa | 0 mm | - | 106 W/m² | - |
| 1777243216 | 26.67° C | 48% | 1012.3 hPa | 0 mm | - | 80 W/m² | - |
| 1777242616 | 26.67° C | 47% | 1012.2 hPa | 0 mm | - | 228 W/m² | - |
| 1777237816 | 26.11° C | 52% | 1012 hPa | 0 mm | - | 217 W/m² | - |
| 1777233616 | 26.11° C | 56% | 1012.2 hPa | 0 mm | - | 210 W/m² | - |
| 1777231816 | 25° C | 60% | 1012.6 hPa | 0 mm | - | 158 W/m² | - |
* Rain latest hour (hover to see other rain measurements)
** Current wind speed in m/s (hover to see current wind gust speed)